createdAt,value
2019-02-27T00:00:20.508Z,72.00
2019-02-27T00:02:51.062Z,72.10
2019-02-27T00:05:20.944Z,72.50
2019-02-27T00:07:51.865Z,72.40
2019-02-27T00:10:22.684Z,72.50
2019-02-27T00:12:52.593Z,72.60
2019-02-27T00:15:22.847Z,72.60
2019-02-27T00:17:53.135Z,72.70
2019-02-27T00:20:22.960Z,72.70
2019-02-27T00:22:52.766Z,72.90
2019-02-27T00:25:23.185Z,72.70
2019-02-27T00:27:54.357Z,72.90
2019-02-27T00:30:24.430Z,72.80
2019-02-27T00:32:54.406Z,73.10
2019-02-27T00:35:24.553Z,73.00
2019-02-27T00:37:54.623Z,72.90
2019-02-27T00:40:24.866Z,73.30
2019-02-27T00:42:55.014Z,73.10
2019-02-27T00:45:25.302Z,73.20
2019-02-27T00:47:55.112Z,73.20
2019-02-27T00:50:24.916Z,73.30
2019-02-27T00:52:54.741Z,73.40
2019-02-27T00:55:24.391Z,73.30
2019-02-27T00:57:54.428Z,73.40
2019-02-27T01:00:26.955Z,73.50
2019-02-27T01:02:56.869Z,73.60
2019-02-27T01:05:26.658Z,73.80
2019-02-27T01:07:56.742Z,73.60
2019-02-27T01:10:27.046Z,73.40
2019-02-27T01:13:00.239Z,73.60
2019-02-27T01:15:30.079Z,73.90
2019-02-27T01:18:00.034Z,74.00
2019-02-27T01:20:29.636Z,74.10
2019-02-27T01:22:59.759Z,74.00
2019-02-27T01:25:29.610Z,74.20
2019-02-27T01:28:01.615Z,73.80
2019-02-27T01:30:31.427Z,73.80
2019-02-27T01:33:03.959Z,73.40
2019-02-27T01:35:34.808Z,73.60
2019-02-27T01:38:05.270Z,73.90
2019-02-27T01:40:35.776Z,74.10
2019-02-27T01:43:06.504Z,74.10
2019-02-27T01:45:36.405Z,74.10
2019-02-27T01:48:08.976Z,74.10
2019-02-27T01:50:38.814Z,74.20
2019-02-27T01:53:09.531Z,74.30
2019-02-27T01:55:39.776Z,74.30
2019-02-27T01:58:10.271Z,74.30
2019-02-27T02:00:40.419Z,74.30
2019-02-27T02:03:11.135Z,74.60
2019-02-27T02:05:42.666Z,74.20
2019-02-27T02:08:14.007Z,74.30
2019-02-27T02:10:44.585Z,74.30
2019-02-27T02:13:27.935Z,74.40
2019-02-27T02:16:50.692Z,74.50
2019-02-27T02:19:56.110Z,74.70
2019-02-27T02:23:14.013Z,74.60
2019-02-27T02:26:19.527Z,74.80
2019-02-27T02:29:35.422Z,74.60
2019-02-27T02:32:17.376Z,74.80
2019-02-27T02:35:50.726Z,74.90
2019-02-27T02:38:46.423Z,74.80
2019-02-27T02:41:48.031Z,74.70
2019-02-27T02:44:28.390Z,75.00
2019-02-27T02:47:19.754Z,75.20
2019-02-27T02:50:38.561Z,75.30
2019-02-27T02:53:30.367Z,75.10
2019-02-27T02:56:38.238Z,74.90
2019-02-27T02:59:43.925Z,75.10
2019-02-27T03:02:35.846Z,75.00
2019-02-27T03:05:37.502Z,75.30
2019-02-27T03:08:42.863Z,75.20
2019-02-27T03:11:55.639Z,75.20
2019-02-27T03:14:53.074Z,75.40
2019-02-27T03:17:55.196Z,75.30
2019-02-27T03:21:03.864Z,75.40
2019-02-27T03:24:27.924Z,75.50
2019-02-27T03:27:34.600Z,75.70
2019-02-27T03:30:13.698Z,75.90
2019-02-27T03:33:08.428Z,75.70
2019-02-27T03:36:06.626Z,75.60
2019-02-27T03:39:08.684Z,76.00
2019-02-27T03:42:08.903Z,75.90
2019-02-27T03:45:06.144Z,75.70
2019-02-27T03:48:13.415Z,75.70
2019-02-27T03:51:04.948Z,75.80
2019-02-27T03:54:24.284Z,75.80
2019-02-27T03:57:20.936Z,75.80
2019-02-27T04:00:25.150Z,75.90
2019-02-27T04:03:44.501Z,75.80
2019-02-27T04:06:28.527Z,76.10
2019-02-27T04:09:01.850Z,76.00
2019-02-27T04:11:31.538Z,75.90
2019-02-27T04:14:04.720Z,76.20
2019-02-27T04:16:33.549Z,76.30
2019-02-27T04:19:04.971Z,76.50
2019-02-27T04:21:35.218Z,76.20
2019-02-27T04:24:06.533Z,76.40
2019-02-27T04:26:41.573Z,76.30
2019-02-27T04:29:09.862Z,76.40
2019-02-27T04:31:39.918Z,76.10
2019-02-27T04:34:09.849Z,76.80
2019-02-27T04:36:40.173Z,76.20
2019-02-27T04:39:10.119Z,76.40
2019-02-27T04:41:40.256Z,76.80
2019-02-27T04:44:10.464Z,76.40
2019-02-27T04:46:40.894Z,76.70
2019-02-27T04:49:10.737Z,76.70
2019-02-27T04:51:40.384Z,76.50
2019-02-27T04:54:10.096Z,76.90
2019-02-27T04:56:39.704Z,77.00
2019-02-27T04:59:09.373Z,77.10
2019-02-27T05:01:39.688Z,77.20
2019-02-27T05:04:09.351Z,77.20
2019-02-27T05:06:39.123Z,77.20
2019-02-27T05:09:09.168Z,77.20
2019-02-27T05:11:39.532Z,77.20
2019-02-27T05:14:09.466Z,77.60
2019-02-27T05:16:39.682Z,77.50
2019-02-27T05:19:09.921Z,77.60
2019-02-27T05:21:40.203Z,77.70
2019-02-27T05:24:10.052Z,77.60
2019-02-27T05:26:40.469Z,77.70
2019-02-27T05:29:10.932Z,78.10
2019-02-27T05:31:40.659Z,78.00
2019-02-27T05:34:13.586Z,78.20
2019-02-27T05:36:42.826Z,78.20
2019-02-27T05:39:14.900Z,78.30
2019-02-27T05:41:44.719Z,78.00
2019-02-27T05:44:15.796Z,77.90
2019-02-27T05:46:48.062Z,78.50
2019-02-27T05:49:17.912Z,78.30
2019-02-27T05:51:47.667Z,78.10
2019-02-27T05:54:17.954Z,79.10
2019-02-27T05:56:49.629Z,80.10
2019-02-27T05:59:19.497Z,79.30
2019-02-27T06:01:49.575Z,78.60
2019-02-27T06:04:19.479Z,78.40
2019-02-27T06:06:49.713Z,78.30
2019-02-27T06:09:19.849Z,78.40
2019-02-27T06:11:50.565Z,78.60
2019-02-27T06:14:22.090Z,78.70
2019-02-27T06:16:52.177Z,79.00
2019-02-27T06:19:21.840Z,78.80
2019-02-27T06:21:56.103Z,78.60
2019-02-27T06:24:23.058Z,78.90
2019-02-27T06:26:53.132Z,79.00
2019-02-27T06:29:24.171Z,82.10
2019-02-27T06:31:54.807Z,81.50
2019-02-27T06:34:24.970Z,79.60
2019-02-27T06:36:55.111Z,79.40
2019-02-27T06:39:24.719Z,79.50
2019-02-27T06:41:54.375Z,79.60
2019-02-27T06:44:24.054Z,79.50
2019-02-27T06:46:53.759Z,79.40
2019-02-27T06:49:24.681Z,79.50
2019-02-27T06:51:54.750Z,79.60
2019-02-27T06:54:25.245Z,79.60
2019-02-27T06:56:55.190Z,79.70
2019-02-27T06:59:25.754Z,79.70
2019-02-27T07:01:55.639Z,79.80
2019-02-27T07:04:26.894Z,80.10
2019-02-27T07:06:57.078Z,80.00
2019-02-27T07:09:27.177Z,79.90
2019-02-27T07:11:57.040Z,79.80
2019-02-27T07:14:27.495Z,79.90
2019-02-27T07:16:57.857Z,80.00
2019-02-27T07:19:28.765Z,80.10
2019-02-27T07:21:59.069Z,80.20
2019-02-27T07:24:30.517Z,79.80
2019-02-27T07:27:01.077Z,80.10
2019-02-27T07:29:31.234Z,80.30
2019-02-27T07:32:01.359Z,80.30
2019-02-27T07:34:31.691Z,80.10
2019-02-27T07:37:01.754Z,80.20
2019-02-27T07:39:32.762Z,80.10
2019-02-27T07:42:03.316Z,80.20
2019-02-27T07:44:35.144Z,80.10
2019-02-27T07:47:05.157Z,80.40
2019-02-27T07:49:35.483Z,80.40
2019-02-27T07:52:05.424Z,80.80
2019-02-27T07:54:35.690Z,80.10
2019-02-27T07:57:05.613Z,80.90
2019-02-27T07:59:38.087Z,81.40
2019-02-27T08:02:07.502Z,80.70
2019-02-27T08:04:37.735Z,80.60
2019-02-27T08:07:10.080Z,80.70
2019-02-27T08:09:39.514Z,80.10
2019-02-27T08:12:09.506Z,79.90
2019-02-27T08:14:39.720Z,79.60
2019-02-27T08:17:17.296Z,80.30
2019-02-27T08:19:42.890Z,79.80
2019-02-27T08:22:13.439Z,80.30
2019-02-27T08:24:43.814Z,79.70
2019-02-27T08:27:14.011Z,80.00
2019-02-27T08:29:43.909Z,80.10
2019-02-27T08:32:13.797Z,78.90
2019-02-27T08:34:44.024Z,74.00
2019-02-27T08:37:14.058Z,73.40
2019-02-27T08:39:44.214Z,77.90
2019-02-27T08:42:15.776Z,76.00
2019-02-27T08:44:46.661Z,80.00
2019-02-27T08:47:17.019Z,74.60
2019-02-27T08:49:46.921Z,77.60
2019-02-27T08:52:22.892Z,77.40
2019-02-27T08:54:53.428Z,75.60
2019-02-27T08:57:23.729Z,72.80
2019-02-27T08:59:53.779Z,79.30
2019-02-27T09:02:24.261Z,75.20
2019-02-27T09:04:54.576Z,79.90
2019-02-27T09:07:24.460Z,80.60
2019-02-27T09:09:55.242Z,79.90
2019-02-27T09:12:25.459Z,76.10
2019-02-27T09:14:56.012Z,80.80
2019-02-27T09:17:27.366Z,79.30
2019-02-27T09:19:57.867Z,78.40
2019-02-27T09:22:27.742Z,72.60
2019-02-27T09:24:57.816Z,77.50
2019-02-27T09:27:27.503Z,73.20
2019-02-27T09:29:57.663Z,71.90
2019-02-27T09:32:28.052Z,73.00
2019-02-27T09:34:59.596Z,72.90
2019-02-27T09:37:29.687Z,71.20
2019-02-27T09:40:04.505Z,69.30
2019-02-27T09:42:32.317Z,70.40
2019-02-27T09:45:02.208Z,69.80
2019-02-27T09:47:32.615Z,71.00
2019-02-27T09:50:02.522Z,69.10
2019-02-27T09:52:32.701Z,69.20
2019-02-27T09:55:02.823Z,67.50
2019-02-27T09:57:32.924Z,69.10
2019-02-27T10:00:04.926Z,67.30
2019-02-27T10:02:34.737Z,67.60
2019-02-27T10:05:04.984Z,65.50
2019-02-27T10:07:35.038Z,67.80
2019-02-27T10:10:04.926Z,66.80
2019-02-27T10:12:34.927Z,65.00
2019-02-27T10:15:04.815Z,66.50
2019-02-27T10:17:36.550Z,58.30
2019-02-27T10:20:06.758Z,65.00
2019-02-27T10:22:36.615Z,64.90
2019-02-27T10:25:08.630Z,67.10
2019-02-27T10:27:38.390Z,64.80
2019-02-27T10:30:11.519Z,64.90
2019-02-27T10:32:40.200Z,63.70
2019-02-27T10:35:10.539Z,63.70
2019-02-27T10:37:40.573Z,64.00
2019-02-27T10:40:12.087Z,63.40
2019-02-27T10:42:42.435Z,65.30
2019-02-27T10:45:12.498Z,62.90
2019-02-27T10:47:43.283Z,62.30
2019-02-27T10:50:13.493Z,62.70
2019-02-27T10:53:02.405Z,61.70
2019-02-27T10:55:32.778Z,62.00
2019-02-27T10:58:02.802Z,59.20
2019-02-27T11:00:32.566Z,58.50
2019-02-27T11:03:02.721Z,59.20
2019-02-27T11:05:33.327Z,59.00
2019-02-27T11:08:02.989Z,57.90
2019-02-27T11:10:33.086Z,58.20
2019-02-27T11:13:06.705Z,57.20
2019-02-27T11:15:35.037Z,54.30
2019-02-27T11:18:05.954Z,53.70
2019-02-27T11:20:35.785Z,54.20
2019-02-27T11:23:07.035Z,53.00
2019-02-27T11:25:37.762Z,52.70
2019-02-27T11:28:07.744Z,50.90
2019-02-27T11:30:38.401Z,51.30
2019-02-27T11:33:08.430Z,50.20
2019-02-27T11:35:38.473Z,50.50
2019-02-27T11:38:08.764Z,50.60
2019-02-27T11:40:41.802Z,50.80
2019-02-27T11:43:10.037Z,50.80
2019-02-27T11:45:40.045Z,49.70
2019-02-27T11:48:09.887Z,48.40
2019-02-27T11:50:40.154Z,49.40
2019-02-27T11:53:10.270Z,49.10
2019-02-27T11:55:40.514Z,48.10
2019-02-27T11:58:10.837Z,47.30
2019-02-27T12:00:40.983Z,47.60
2019-02-27T12:03:11.244Z,48.10
2019-02-27T12:05:42.160Z,47.70
2019-02-27T12:08:12.561Z,47.30
2019-02-27T12:10:42.366Z,48.10
2019-02-27T12:13:12.040Z,48.20
2019-02-27T12:15:43.607Z,47.80
2019-02-27T12:18:13.944Z,48.00
2019-02-27T12:20:43.603Z,47.00
2019-02-27T12:23:13.253Z,45.20
2019-02-27T12:25:43.095Z,44.40
2019-02-27T12:28:15.200Z,46.50
2019-02-27T12:30:45.213Z,47.10
2019-02-27T12:33:15.300Z,47.10
2019-02-27T12:35:45.048Z,47.10
2019-02-27T12:38:15.104Z,46.20
2019-02-27T12:40:45.151Z,45.70
2019-02-27T12:43:18.257Z,47.40
2019-02-27T12:45:46.147Z,47.00
2019-02-27T12:48:16.353Z,46.40
2019-02-27T12:50:46.207Z,45.40
2019-02-27T12:53:20.681Z,46.10
2019-02-27T12:55:48.067Z,45.60
2019-02-27T12:58:17.748Z,47.00
2019-02-27T13:00:47.441Z,45.50
2019-02-27T13:03:17.093Z,45.40
2019-02-27T13:05:46.830Z,44.70
2019-02-27T13:08:18.918Z,43.10
2019-02-27T13:10:48.735Z,43.20
2019-02-27T13:13:18.852Z,43.10
2019-02-27T13:15:48.431Z,42.80
2019-02-27T13:18:18.172Z,41.70
2019-02-27T13:20:48.089Z,39.70
2019-02-27T13:23:18.146Z,38.90
2019-02-27T13:25:47.770Z,40.70
2019-02-27T13:28:17.653Z,40.10
2019-02-27T13:30:47.676Z,40.20
2019-02-27T13:33:18.195Z,39.60
2019-02-27T13:35:47.854Z,41.20
2019-02-27T13:38:18.380Z,42.70
2019-02-27T13:40:48.633Z,43.00
2019-02-27T13:43:18.426Z,42.60
2019-02-27T13:45:48.223Z,41.80
2019-02-27T13:48:18.265Z,40.70
2019-02-27T13:50:48.248Z,40.20
2019-02-27T13:53:18.046Z,40.70
2019-02-27T13:55:48.141Z,40.80
2019-02-27T13:58:18.697Z,41.00
2019-02-27T14:00:48.675Z,42.00
2019-02-27T14:03:18.323Z,41.90
2019-02-27T14:05:47.987Z,41.60
2019-02-27T14:08:17.945Z,42.00
2019-02-27T14:10:50.507Z,41.30
2019-02-27T14:13:19.228Z,41.60
2019-02-27T14:15:49.283Z,41.50
2019-02-27T14:18:18.914Z,41.90
2019-02-27T14:21:35.139Z,41.30
2019-02-27T14:24:22.637Z,41.40
2019-02-27T14:26:52.323Z,41.60
2019-02-27T14:29:22.296Z,42.20
2019-02-27T14:31:53.119Z,41.20
2019-02-27T14:34:27.108Z,40.90
2019-02-27T14:36:54.242Z,41.50
2019-02-27T14:39:24.213Z,41.10
2019-02-27T14:41:53.875Z,40.10
2019-02-27T14:44:23.677Z,40.00
2019-02-27T14:46:53.706Z,40.60
2019-02-27T14:49:26.806Z,40.60
2019-02-27T14:51:55.575Z,40.50
2019-02-27T14:54:26.115Z,41.50
2019-02-27T14:56:56.495Z,41.20
2019-02-27T14:59:30.343Z,42.20
2019-02-27T15:01:58.605Z,41.30
2019-02-27T15:04:28.343Z,41.70
2019-02-27T15:06:57.932Z,42.50
2019-02-27T15:09:27.558Z,42.30
2019-02-27T15:11:57.262Z,43.10
2019-02-27T15:14:26.888Z,42.80
2019-02-27T15:16:56.559Z,42.90
2019-02-27T15:19:26.819Z,42.20
2019-02-27T15:21:57.901Z,42.00
2019-02-27T15:24:27.494Z,41.50
2019-02-27T15:26:57.585Z,43.90
2019-02-27T15:29:27.229Z,42.70
2019-02-27T15:32:02.164Z,43.60
2019-02-27T15:34:32.344Z,42.40
2019-02-27T15:37:04.256Z,43.20
2019-02-27T15:39:33.966Z,42.60
2019-02-27T15:42:08.756Z,43.30
2019-02-27T15:44:35.296Z,43.20
2019-02-27T15:47:06.076Z,43.20
2019-02-27T15:49:35.736Z,43.90
2019-02-27T15:52:06.856Z,44.10
2019-02-27T15:54:36.606Z,44.30
2019-02-27T15:57:14.931Z,44.00
2019-02-27T15:59:44.146Z,44.80
2019-02-27T16:02:14.026Z,45.00
2019-02-27T16:04:44.042Z,44.80
2019-02-27T16:07:14.785Z,44.90
2019-02-27T16:09:46.142Z,45.20
2019-02-27T16:12:15.914Z,45.60
2019-02-27T16:14:46.347Z,45.20
2019-02-27T16:17:16.490Z,45.30
2019-02-27T16:19:46.165Z,46.10
2019-02-27T16:22:15.801Z,45.90
2019-02-27T16:24:47.951Z,46.40
2019-02-27T16:27:17.612Z,46.40
2019-02-27T16:29:47.320Z,46.70
2019-02-27T16:32:33.528Z,46.80
2019-02-27T16:35:04.333Z,47.80
2019-02-27T16:37:34.726Z,47.10
2019-02-27T16:40:04.969Z,47.20
2019-02-27T16:42:36.387Z,48.40
2019-02-27T16:45:09.306Z,47.70
2019-02-27T16:47:41.290Z,48.80
2019-02-27T16:50:14.407Z,49.10
2019-02-27T16:52:44.819Z,49.30
2019-02-27T16:55:16.547Z,49.40
2019-02-27T16:57:46.247Z,49.20
2019-02-27T17:00:21.156Z,49.30
2019-02-27T17:02:49.787Z,50.30
2019-02-27T17:05:19.736Z,50.60
2019-02-27T17:07:50.146Z,51.30
2019-02-27T17:10:22.743Z,50.40
2019-02-27T17:12:52.689Z,50.70
2019-02-27T17:15:22.811Z,51.30
2019-02-27T17:17:53.942Z,51.60
2019-02-27T17:20:24.209Z,51.40
2019-02-27T17:22:54.706Z,52.20
2019-02-27T17:25:28.684Z,52.10
2019-02-27T17:27:56.335Z,53.60
2019-02-27T17:30:28.116Z,53.60
2019-02-27T17:33:01.310Z,53.20
2019-02-27T17:35:30.647Z,54.50
2019-02-27T17:38:03.178Z,54.50
2019-02-27T17:40:36.628Z,54.80
2019-02-27T17:43:06.701Z,55.00
2019-02-27T17:45:36.079Z,55.10
2019-02-27T17:48:09.350Z,55.00
2019-02-27T17:50:37.719Z,55.00
2019-02-27T17:53:07.762Z,55.40
2019-02-27T17:55:43.892Z,56.00
2019-02-27T17:58:21.400Z,55.40
2019-02-27T18:00:54.065Z,55.60
2019-02-27T18:03:25.023Z,56.10
2019-02-27T18:05:56.384Z,56.40
2019-02-27T18:08:27.747Z,56.10
2019-02-27T18:11:00.007Z,56.00
2019-02-27T18:13:35.302Z,56.40
2019-02-27T18:16:03.897Z,56.60
2019-02-27T18:18:34.212Z,56.50
2019-02-27T18:21:05.834Z,56.70
2019-02-27T18:23:35.877Z,56.90
2019-02-27T18:26:06.509Z,57.20
2019-02-27T18:28:38.987Z,57.30
2019-02-27T18:31:10.373Z,57.40
2019-02-27T18:33:50.206Z,57.70
2019-02-27T18:36:24.901Z,57.60
2019-02-27T18:39:02.507Z,58.00
2019-02-27T18:41:36.617Z,58.20
2019-02-27T18:44:09.091Z,58.80
2019-02-27T18:46:40.664Z,58.60
2019-02-27T18:49:15.260Z,59.00
2019-02-27T18:51:46.954Z,58.70
2019-02-27T18:54:21.696Z,58.80
2019-02-27T18:56:49.641Z,59.00
2019-02-27T18:59:19.735Z,59.30
2019-02-27T19:01:49.601Z,59.80
2019-02-27T19:04:21.494Z,59.50
2019-02-27T19:06:51.529Z,60.20
2019-02-27T19:09:22.486Z,59.70
2019-02-27T19:11:53.773Z,59.90
2019-02-27T19:14:24.854Z,59.90
2019-02-27T19:16:55.929Z,60.30
2019-02-27T19:19:26.623Z,60.10
2019-02-27T19:21:57.412Z,60.20
2019-02-27T19:24:27.725Z,60.50
2019-02-27T19:26:58.427Z,60.50
2019-02-27T19:29:31.843Z,60.50
2019-02-27T19:32:00.373Z,60.70
2019-02-27T19:34:31.252Z,60.80
2019-02-27T19:37:02.528Z,61.10
2019-02-27T19:39:35.929Z,60.90
2019-02-27T19:42:12.958Z,61.30
2019-02-27T19:44:41.917Z,61.40
2019-02-27T19:47:11.993Z,61.10
2019-02-27T19:49:42.287Z,61.60
2019-02-27T19:52:12.290Z,61.60
2019-02-27T19:54:43.263Z,62.00
2019-02-27T19:57:13.957Z,62.00
2019-02-27T19:59:43.853Z,61.90
2019-02-27T20:02:14.447Z,62.30
2019-02-27T20:04:45.972Z,62.10
2019-02-27T20:07:18.619Z,62.20
2019-02-27T20:09:51.424Z,62.30
2019-02-27T20:12:20.209Z,62.50
2019-02-27T20:14:51.885Z,62.60
2019-02-27T20:17:23.012Z,62.60
2019-02-27T20:19:53.569Z,62.80
2019-02-27T20:22:23.878Z,62.60
2019-02-27T20:24:53.948Z,63.70
2019-02-27T20:27:26.079Z,63.60
2019-02-27T20:30:16.937Z,63.20
2019-02-27T20:32:49.802Z,63.10
2019-02-27T20:35:20.590Z,63.30
2019-02-27T20:37:51.689Z,63.30
2019-02-27T20:40:22.802Z,63.80
2019-02-27T20:42:55.023Z,64.50
2019-02-27T20:45:26.619Z,64.60
2019-02-27T20:47:59.950Z,64.60
2019-02-27T20:50:35.068Z,64.50
2019-02-27T20:53:03.910Z,64.40
2019-02-27T20:55:33.694Z,64.60
2019-02-27T20:58:08.126Z,65.20
2019-02-27T21:00:38.394Z,64.70
2019-02-27T21:03:08.260Z,64.50
2019-02-27T21:05:41.084Z,64.30
2019-02-27T21:08:09.951Z,64.60
2019-02-27T21:10:40.847Z,64.40
2019-02-27T21:13:15.929Z,64.30
2019-02-27T21:15:44.659Z,64.40
2019-02-27T21:18:15.990Z,64.50
2019-02-27T21:20:47.214Z,65.30
2019-02-27T21:23:17.074Z,64.90
2019-02-27T21:25:49.198Z,65.40
2019-02-27T21:28:21.244Z,65.20
2019-02-27T21:30:52.565Z,65.20
2019-02-27T21:33:23.917Z,65.30
2019-02-27T21:35:53.768Z,65.40
2019-02-27T21:38:25.649Z,65.50
2019-02-27T21:40:56.212Z,65.70
2019-02-27T21:43:26.355Z,65.80
2019-02-27T21:45:57.887Z,66.40
2019-02-27T21:48:29.777Z,66.40
2019-02-27T21:51:00.251Z,66.40
2019-02-27T21:53:30.838Z,66.40
2019-02-27T21:56:01.233Z,66.60
2019-02-27T21:58:41.582Z,66.90
2019-02-27T22:01:02.768Z,66.80
2019-02-27T22:03:35.299Z,66.70
2019-02-27T22:06:05.395Z,67.30
2019-02-27T22:08:38.861Z,66.80
2019-02-27T22:11:08.555Z,67.30
2019-02-27T22:13:38.765Z,67.10
2019-02-27T22:16:08.763Z,67.10
2019-02-27T22:18:38.973Z,68.40
2019-02-27T22:21:09.663Z,67.50
2019-02-27T22:23:40.110Z,67.50
2019-02-27T22:26:12.626Z,67.60
2019-02-27T22:28:42.481Z,68.00
2019-02-27T22:31:12.390Z,68.00
2019-02-27T22:33:42.967Z,68.40
2019-02-27T22:36:14.061Z,69.90
2019-02-27T22:38:44.235Z,68.50
2019-02-27T22:41:14.338Z,69.00
2019-02-27T22:43:44.724Z,69.30
2019-02-27T22:46:16.481Z,70.30
2019-02-27T22:48:47.290Z,69.90
2019-02-27T22:51:17.484Z,73.10
2019-02-27T22:53:53.308Z,71.70
2019-02-27T22:56:23.279Z,72.40
2019-02-27T22:58:53.710Z,71.40
2019-02-27T23:01:31.767Z,70.80
2019-02-27T23:04:05.308Z,72.60
2019-02-27T23:06:36.927Z,70.80
2019-02-27T23:09:11.518Z,71.20
2019-02-27T23:11:41.429Z,73.20
2019-02-27T23:14:12.237Z,70.90
2019-02-27T23:16:43.217Z,70.30
2019-02-27T23:19:13.710Z,70.10
2019-02-27T23:21:43.901Z,70.10
2019-02-27T23:24:15.711Z,70.50
2019-02-27T23:26:45.930Z,70.90
2019-02-27T23:29:19.367Z,71.40
2019-02-27T23:31:51.174Z,70.60
2019-02-27T23:34:21.153Z,71.20
2019-02-27T23:36:55.662Z,71.10
2019-02-27T23:39:23.469Z,70.80
2019-02-27T23:41:56.536Z,70.40
2019-02-27T23:44:26.959Z,70.80
2019-02-27T23:46:57.439Z,70.80
2019-02-27T23:49:32.748Z,71.00
2019-02-27T23:52:03.000Z,71.00
2019-02-27T23:54:35.784Z,70.70
2019-02-27T23:57:04.475Z,71.10
2019-02-27T23:59:35.579Z,70.60
